sensor_id;sensor_type;location;lat;lon;timestamp;temperature;humidity
3528;DHT22;1778;47.966;7.854;2022-09-09T00:00:36;15.40;99.90
3528;DHT22;1778;47.966;7.854;2022-09-09T00:02:44;15.50;99.90
3528;DHT22;1778;47.966;7.854;2022-09-09T00:03:54;15.50;99.90
3528;DHT22;1778;47.966;7.854;2022-09-09T00:05:00;15.50;99.90
3528;DHT22;1778;47.966;7.854;2022-09-09T00:06:06;15.60;99.90
3528;DHT22;1778;47.966;7.854;2022-09-09T00:10:22;15.60;99.90
3528;DHT22;1778;47.966;7.854;2022-09-09T00:11:36;15.60;99.90
3528;DHT22;1778;47.966;7.854;2022-09-09T00:14:53;15.50;99.90
3528;DHT22;1778;47.966;7.854;2022-09-09T00:16:04;15.50;99.90
3528;DHT22;1778;47.966;7.854;2022-09-09T00:17:14;15.40;99.90
3528;DHT22;1778;47.966;7.854;2022-09-09T00:18:31;15.50;99.90
3528;DHT22;1778;47.966;7.854;2022-09-09T00:19:53;15.50;99.90
3528;DHT22;1778;47.966;7.854;2022-09-09T00:21:13;15.50;99.90
3528;DHT22;1778;47.966;7.854;2022-09-09T00:22:22;15.40;99.90
3528;DHT22;1778;47.966;7.854;2022-09-09T00:23:28;15.40;99.90
3528;DHT22;1778;47.966;7.854;2022-09-09T00:25:57;15.30;99.90
3528;DHT22;1778;47.966;7.854;2022-09-09T00:27:31;15.30;99.90
3528;DHT22;1778;47.966;7.854;2022-09-09T00:28:40;15.20;99.90
3528;DHT22;1778;47.966;7.854;2022-09-09T00:29:53;15.20;99.90
3528;DHT22;1778;47.966;7.854;2022-09-09T00:30:55;15.20;99.90
3528;DHT22;1778;47.966;7.854;2022-09-09T00:32:05;15.20;99.90
3528;DHT22;1778;47.966;7.854;2022-09-09T00:33:13;15.20;99.90
3528;DHT22;1778;47.966;7.854;2022-09-09T00:34:22;15.30;99.90
3528;DHT22;1778;47.966;7.854;2022-09-09T00:35:34;15.30;99.90
3528;DHT22;1778;47.966;7.854;2022-09-09T00:36:38;15.40;99.90
3528;DHT22;1778;47.966;7.854;2022-09-09T00:37:39;15.40;99.90
3528;DHT22;1778;47.966;7.854;2022-09-09T00:38:47;15.40;99.90
3528;DHT22;1778;47.966;7.854;2022-09-09T00:39:51;15.50;99.90
3528;DHT22;1778;47.966;7.854;2022-09-09T00:41:11;15.40;99.90
3528;DHT22;1778;47.966;7.854;2022-09-09T00:42:24;15.50;99.90
3528;DHT22;1778;47.966;7.854;2022-09-09T00:43:29;15.50;99.90
3528;DHT22;1778;47.966;7.854;2022-09-09T00:44:34;15.50;99.90
3528;DHT22;1778;47.966;7.854;2022-09-09T00:46:20;15.50;99.90
3528;DHT22;1778;47.966;7.854;2022-09-09T00:48:04;15.50;99.90
3528;DHT22;1778;47.966;7.854;2022-09-09T00:50:55;15.60;99.90
3528;DHT22;1778;47.966;7.854;2022-09-09T00:54:32;15.60;99.90
3528;DHT22;1778;47.966;7.854;2022-09-09T00:56:30;15.60;99.90
3528;DHT22;1778;47.966;7.854;2022-09-09T00:57:35;15.70;99.90
3528;DHT22;1778;47.966;7.854;2022-09-09T00:58:37;15.70;99.90
3528;DHT22;1778;47.966;7.854;2022-09-09T01:01:13;15.80;99.90
3528;DHT22;1778;47.966;7.854;2022-09-09T01:02:43;15.80;99.90
3528;DHT22;1778;47.966;7.854;2022-09-09T01:03:54;15.80;99.90
3528;DHT22;1778;47.966;7.854;2022-09-09T01:05:13;15.90;99.90
3528;DHT22;1778;47.966;7.854;2022-09-09T01:07:32;15.90;99.90
3528;DHT22;1778;47.966;7.854;2022-09-09T01:10:53;15.90;99.90
3528;DHT22;1778;47.966;7.854;2022-09-09T01:13:32;16.00;99.90
3528;DHT22;1778;47.966;7.854;2022-09-09T01:14:49;16.10;99.90
3528;DHT22;1778;47.966;7.854;2022-09-09T01:15:53;16.10;99.90
3528;DHT22;1778;47.966;7.854;2022-09-09T01:17:26;16.00;99.90
3528;DHT22;1778;47.966;7.854;2022-09-09T01:18:39;16.00;99.90
3528;DHT22;1778;47.966;7.854;2022-09-09T01:19:47;16.00;99.90
3528;DHT22;1778;47.966;7.854;2022-09-09T01:22:12;15.90;99.90
3528;DHT22;1778;47.966;7.854;2022-09-09T01:23:39;15.90;99.90
3528;DHT22;1778;47.966;7.854;2022-09-09T01:25:23;15.80;99.90
3528;DHT22;1778;47.966;7.854;2022-09-09T01:26:44;15.80;99.90
3528;DHT22;1778;47.966;7.854;2022-09-09T01:28:00;15.90;99.90
3528;DHT22;1778;47.966;7.854;2022-09-09T01:29:09;15.90;99.90
3528;DHT22;1778;47.966;7.854;2022-09-09T01:30:16;15.90;99.90
3528;DHT22;1778;47.966;7.854;2022-09-09T01:31:23;15.90;99.90
3528;DHT22;1778;47.966;7.854;2022-09-09T01:32:53;16.00;99.90
3528;DHT22;1778;47.966;7.854;2022-09-09T01:33:55;16.00;99.90
3528;DHT22;1778;47.966;7.854;2022-09-09T01:34:57;16.00;99.90
3528;DHT22;1778;47.966;7.854;2022-09-09T01:36:09;16.10;99.90
3528;DHT22;1778;47.966;7.854;2022-09-09T01:37:19;16.00;99.90
3528;DHT22;1778;47.966;7.854;2022-09-09T01:38:21;16.10;99.90
3528;DHT22;1778;47.966;7.854;2022-09-09T01:39:25;16.10;99.90
3528;DHT22;1778;47.966;7.854;2022-09-09T01:40:35;16.10;99.90
3528;DHT22;1778;47.966;7.854;2022-09-09T01:41:37;16.10;99.90
3528;DHT22;1778;47.966;7.854;2022-09-09T01:42:43;16.10;99.90
3528;DHT22;1778;47.966;7.854;2022-09-09T01:43:44;16.10;99.90
3528;DHT22;1778;47.966;7.854;2022-09-09T01:44:46;16.10;99.90
3528;DHT22;1778;47.966;7.854;2022-09-09T01:45:51;16.10;99.90
3528;DHT22;1778;47.966;7.854;2022-09-09T01:46:53;16.10;99.90
3528;DHT22;1778;47.966;7.854;2022-09-09T01:47:56;16.10;99.90
3528;DHT22;1778;47.966;7.854;2022-09-09T01:49:17;16.10;99.90
3528;DHT22;1778;47.966;7.854;2022-09-09T01:50:20;16.20;99.90
3528;DHT22;1778;47.966;7.854;2022-09-09T01:51:22;16.10;99.90
3528;DHT22;1778;47.966;7.854;2022-09-09T01:52:25;16.10;99.90
3528;DHT22;1778;47.966;7.854;2022-09-09T01:53:26;16.10;99.90
3528;DHT22;1778;47.966;7.854;2022-09-09T01:54:31;16.00;99.90
3528;DHT22;1778;47.966;7.854;2022-09-09T01:55:40;16.00;99.90
3528;DHT22;1778;47.966;7.854;2022-09-09T02:02:16;15.90;99.90
3528;DHT22;1778;47.966;7.854;2022-09-09T02:03:28;15.80;99.90
3528;DHT22;1778;47.966;7.854;2022-09-09T02:04:52;15.90;99.90
3528;DHT22;1778;47.966;7.854;2022-09-09T02:07:47;15.90;99.90
3528;DHT22;1778;47.966;7.854;2022-09-09T02:09:07;15.90;99.90
3528;DHT22;1778;47.966;7.854;2022-09-09T02:10:32;15.80;99.90
3528;DHT22;1778;47.966;7.854;2022-09-09T02:11:47;15.80;99.90
3528;DHT22;1778;47.966;7.854;2022-09-09T02:13:16;15.80;99.90
3528;DHT22;1778;47.966;7.854;2022-09-09T02:14:24;15.80;99.90
3528;DHT22;1778;47.966;7.854;2022-09-09T02:17:01;15.80;99.90
3528;DHT22;1778;47.966;7.854;2022-09-09T02:18:27;15.80;99.90
3528;DHT22;1778;47.966;7.854;2022-09-09T02:19:34;15.70;99.90
3528;DHT22;1778;47.966;7.854;2022-09-09T02:21:02;15.80;99.90
3528;DHT22;1778;47.966;7.854;2022-09-09T02:22:04;15.80;99.90
3528;DHT22;1778;47.966;7.854;2022-09-09T02:23:07;15.80;99.90
3528;DHT22;1778;47.966;7.854;2022-09-09T02:24:14;15.80;99.90
3528;DHT22;1778;47.966;7.854;2022-09-09T02:25:25;15.80;99.90
3528;DHT22;1778;47.966;7.854;2022-09-09T02:26:37;15.80;99.90
3528;DHT22;1778;47.966;7.854;2022-09-09T02:27:43;15.80;99.90
3528;DHT22;1778;47.966;7.854;2022-09-09T02:28:48;15.70;99.90
3528;DHT22;1778;47.966;7.854;2022-09-09T02:29:52;15.70;99.90
3528;DHT22;1778;47.966;7.854;2022-09-09T02:31:06;15.70;99.90
3528;DHT22;1778;47.966;7.854;2022-09-09T02:32:14;15.70;99.90
3528;DHT22;1778;47.966;7.854;2022-09-09T02:33:16;15.60;99.90
3528;DHT22;1778;47.966;7.854;2022-09-09T02:34:24;15.60;99.90
3528;DHT22;1778;47.966;7.854;2022-09-09T02:35:28;15.60;99.90
3528;DHT22;1778;47.966;7.854;2022-09-09T02:36:33;15.70;99.90
3528;DHT22;1778;47.966;7.854;2022-09-09T02:37:38;15.70;99.90
3528;DHT22;1778;47.966;7.854;2022-09-09T02:38:47;15.70;99.90
3528;DHT22;1778;47.966;7.854;2022-09-09T02:39:58;15.60;99.90
3528;DHT22;1778;47.966;7.854;2022-09-09T02:41:01;15.70;99.90
3528;DHT22;1778;47.966;7.854;2022-09-09T02:42:04;15.70;99.90
3528;DHT22;1778;47.966;7.854;2022-09-09T02:43:06;15.70;99.90
3528;DHT22;1778;47.966;7.854;2022-09-09T02:44:13;15.80;99.90
3528;DHT22;1778;47.966;7.854;2022-09-09T02:45:19;15.70;99.90
3528;DHT22;1778;47.966;7.854;2022-09-09T02:46:29;15.70;99.90
3528;DHT22;1778;47.966;7.854;2022-09-09T02:50:17;15.70;99.90
3528;DHT22;1778;47.966;7.854;2022-09-09T02:55:23;15.80;99.90
3528;DHT22;1778;47.966;7.854;2022-09-09T02:56:31;15.80;99.90
3528;DHT22;1778;47.966;7.854;2022-09-09T02:57:37;15.80;99.90
3528;DHT22;1778;47.966;7.854;2022-09-09T02:58:39;15.80;99.90
3528;DHT22;1778;47.966;7.854;2022-09-09T02:59:43;15.80;99.90
3528;DHT22;1778;47.966;7.854;2022-09-09T03:00:47;15.70;99.90
3528;DHT22;1778;47.966;7.854;2022-09-09T03:01:49;15.70;99.90
3528;DHT22;1778;47.966;7.854;2022-09-09T03:02:51;15.70;99.90
3528;DHT22;1778;47.966;7.854;2022-09-09T03:03:53;15.70;99.90
3528;DHT22;1778;47.966;7.854;2022-09-09T03:04:57;15.70;99.90
3528;DHT22;1778;47.966;7.854;2022-09-09T03:05:59;15.70;99.90
3528;DHT22;1778;47.966;7.854;2022-09-09T03:07:02;15.70;99.90
3528;DHT22;1778;47.966;7.854;2022-09-09T03:08:05;15.70;99.90
3528;DHT22;1778;47.966;7.854;2022-09-09T03:09:07;15.80;99.90
3528;DHT22;1778;47.966;7.854;2022-09-09T03:10:12;15.80;99.90
3528;DHT22;1778;47.966;7.854;2022-09-09T03:11:16;15.80;99.90
3528;DHT22;1778;47.966;7.854;2022-09-09T03:12:18;15.80;99.90
3528;DHT22;1778;47.966;7.854;2022-09-09T03:13:20;15.80;99.90
3528;DHT22;1778;47.966;7.854;2022-09-09T03:14:22;15.80;99.90
3528;DHT22;1778;47.966;7.854;2022-09-09T03:15:27;15.70;99.90
3528;DHT22;1778;47.966;7.854;2022-09-09T03:16:33;15.80;99.90
3528;DHT22;1778;47.966;7.854;2022-09-09T03:17:36;15.80;99.90
3528;DHT22;1778;47.966;7.854;2022-09-09T03:18:37;15.80;99.90
3528;DHT22;1778;47.966;7.854;2022-09-09T03:19:39;15.80;99.90
3528;DHT22;1778;47.966;7.854;2022-09-09T03:20:43;15.90;99.90
3528;DHT22;1778;47.966;7.854;2022-09-09T03:21:46;15.90;99.90
3528;DHT22;1778;47.966;7.854;2022-09-09T03:22:47;15.90;99.90
3528;DHT22;1778;47.966;7.854;2022-09-09T03:23:49;15.90;99.90
3528;DHT22;1778;47.966;7.854;2022-09-09T03:24:51;15.90;99.90
3528;DHT22;1778;47.966;7.854;2022-09-09T03:25:53;15.90;99.90
3528;DHT22;1778;47.966;7.854;2022-09-09T03:27:04;15.90;99.90
3528;DHT22;1778;47.966;7.854;2022-09-09T03:28:08;15.90;99.90
3528;DHT22;1778;47.966;7.854;2022-09-09T03:29:11;15.90;99.90
3528;DHT22;1778;47.966;7.854;2022-09-09T03:30:15;15.90;99.90
3528;DHT22;1778;47.966;7.854;2022-09-09T03:31:17;16.00;99.90
3528;DHT22;1778;47.966;7.854;2022-09-09T03:32:20;16.00;99.90
3528;DHT22;1778;47.966;7.854;2022-09-09T03:33:23;16.00;99.90
3528;DHT22;1778;47.966;7.854;2022-09-09T03:34:25;16.00;99.90
3528;DHT22;1778;47.966;7.854;2022-09-09T03:35:26;16.00;99.90
3528;DHT22;1778;47.966;7.854;2022-09-09T03:36:29;16.00;99.90
3528;DHT22;1778;47.966;7.854;2022-09-09T03:37:31;16.00;99.90
3528;DHT22;1778;47.966;7.854;2022-09-09T03:38:32;16.00;99.90
3528;DHT22;1778;47.966;7.854;2022-09-09T03:39:34;16.00;99.90
3528;DHT22;1778;47.966;7.854;2022-09-09T03:40:36;16.10;99.90
3528;DHT22;1778;47.966;7.854;2022-09-09T03:41:38;16.10;99.90
3528;DHT22;1778;47.966;7.854;2022-09-09T03:42:40;16.10;99.90
3528;DHT22;1778;47.966;7.854;2022-09-09T03:43:41;16.10;99.90
3528;DHT22;1778;47.966;7.854;2022-09-09T03:44:43;16.10;99.90
3528;DHT22;1778;47.966;7.854;2022-09-09T03:45:47;16.10;99.90
3528;DHT22;1778;47.966;7.854;2022-09-09T03:46:50;16.10;99.90
3528;DHT22;1778;47.966;7.854;2022-09-09T03:47:51;16.20;99.90
3528;DHT22;1778;47.966;7.854;2022-09-09T03:48:53;16.20;99.90
3528;DHT22;1778;47.966;7.854;2022-09-09T03:49:55;16.30;99.90
3528;DHT22;1778;47.966;7.854;2022-09-09T03:50:56;16.30;99.90
3528;DHT22;1778;47.966;7.854;2022-09-09T03:52:04;16.30;99.90
3528;DHT22;1778;47.966;7.854;2022-09-09T03:53:05;16.30;99.90
3528;DHT22;1778;47.966;7.854;2022-09-09T03:54:08;16.30;99.90
3528;DHT22;1778;47.966;7.854;2022-09-09T03:55:11;16.40;99.90
3528;DHT22;1778;47.966;7.854;2022-09-09T03:56:13;16.40;99.90
3528;DHT22;1778;47.966;7.854;2022-09-09T03:57:15;16.60;99.90
3528;DHT22;1778;47.966;7.854;2022-09-09T03:58:18;16.50;99.90
3528;DHT22;1778;47.966;7.854;2022-09-09T03:59:20;16.60;99.90
3528;DHT22;1778;47.966;7.854;2022-09-09T04:00:22;16.50;99.90
3528;DHT22;1778;47.966;7.854;2022-09-09T04:01:27;16.50;99.90
3528;DHT22;1778;47.966;7.854;2022-09-09T04:02:28;16.70;99.90
3528;DHT22;1778;47.966;7.854;2022-09-09T04:03:30;16.70;99.90
3528;DHT22;1778;47.966;7.854;2022-09-09T04:04:32;16.70;99.90
3528;DHT22;1778;47.966;7.854;2022-09-09T04:05:34;16.70;99.90
3528;DHT22;1778;47.966;7.854;2022-09-09T04:06:35;16.70;99.90
3528;DHT22;1778;47.966;7.854;2022-09-09T04:07:37;16.70;99.90
3528;DHT22;1778;47.966;7.854;2022-09-09T04:08:39;16.70;99.90
3528;DHT22;1778;47.966;7.854;2022-09-09T04:09:41;16.70;99.90
3528;DHT22;1778;47.966;7.854;2022-09-09T04:10:45;16.70;99.90
3528;DHT22;1778;47.966;7.854;2022-09-09T04:11:48;16.60;99.90
3528;DHT22;1778;47.966;7.854;2022-09-09T04:12:50;16.80;99.90
3528;DHT22;1778;47.966;7.854;2022-09-09T04:13:52;16.80;99.90
3528;DHT22;1778;47.966;7.854;2022-09-09T04:14:53;16.90;99.90
3528;DHT22;1778;47.966;7.854;2022-09-09T04:15:57;16.80;99.90
3528;DHT22;1778;47.966;7.854;2022-09-09T04:16:59;16.70;99.90
3528;DHT22;1778;47.966;7.854;2022-09-09T04:18:01;16.70;99.90
3528;DHT22;1778;47.966;7.854;2022-09-09T04:19:03;16.80;99.90
3528;DHT22;1778;47.966;7.854;2022-09-09T04:20:09;16.70;99.90
3528;DHT22;1778;47.966;7.854;2022-09-09T04:21:12;16.70;99.90
3528;DHT22;1778;47.966;7.854;2022-09-09T04:22:14;16.60;99.90
3528;DHT22;1778;47.966;7.854;2022-09-09T04:23:17;16.60;99.90
3528;DHT22;1778;47.966;7.854;2022-09-09T04:24:22;16.60;99.90
3528;DHT22;1778;47.966;7.854;2022-09-09T04:25:24;16.60;99.90
3528;DHT22;1778;47.966;7.854;2022-09-09T04:26:26;16.50;99.90
3528;DHT22;1778;47.966;7.854;2022-09-09T04:27:28;16.50;99.90
3528;DHT22;1778;47.966;7.854;2022-09-09T04:28:33;16.50;99.90
3528;DHT22;1778;47.966;7.854;2022-09-09T04:29:36;16.50;99.90
3528;DHT22;1778;47.966;7.854;2022-09-09T04:30:37;16.40;99.90
3528;DHT22;1778;47.966;7.854;2022-09-09T04:31:40;16.40;99.90
3528;DHT22;1778;47.966;7.854;2022-09-09T04:32:43;16.40;99.90
3528;DHT22;1778;47.966;7.854;2022-09-09T04:33:45;16.30;99.90
3528;DHT22;1778;47.966;7.854;2022-09-09T04:34:47;16.40;99.90
3528;DHT22;1778;47.966;7.854;2022-09-09T04:35:50;16.40;99.90
3528;DHT22;1778;47.966;7.854;2022-09-09T04:36:52;16.40;99.90
3528;DHT22;1778;47.966;7.854;2022-09-09T04:37:54;16.50;99.90
3528;DHT22;1778;47.966;7.854;2022-09-09T04:38:56;16.50;99.90
3528;DHT22;1778;47.966;7.854;2022-09-09T04:39:59;16.40;99.90
3528;DHT22;1778;47.966;7.854;2022-09-09T04:41:05;16.40;99.90
3528;DHT22;1778;47.966;7.854;2022-09-09T04:42:07;16.40;99.90
3528;DHT22;1778;47.966;7.854;2022-09-09T04:43:10;16.50;99.90
3528;DHT22;1778;47.966;7.854;2022-09-09T04:44:16;16.50;99.90
3528;DHT22;1778;47.966;7.854;2022-09-09T04:45:17;16.50;99.90
3528;DHT22;1778;47.966;7.854;2022-09-09T04:46:22;16.50;99.90
3528;DHT22;1778;47.966;7.854;2022-09-09T04:47:25;16.50;99.90
3528;DHT22;1778;47.966;7.854;2022-09-09T04:48:27;16.50;99.90
3528;DHT22;1778;47.966;7.854;2022-09-09T04:49:29;16.50;99.90
3528;DHT22;1778;47.966;7.854;2022-09-09T04:50:33;16.50;99.90
3528;DHT22;1778;47.966;7.854;2022-09-09T04:51:35;16.50;99.90
3528;DHT22;1778;47.966;7.854;2022-09-09T04:52:37;16.60;99.90
3528;DHT22;1778;47.966;7.854;2022-09-09T04:53:39;16.60;99.90
3528;DHT22;1778;47.966;7.854;2022-09-09T04:54:42;16.60;99.90
3528;DHT22;1778;47.966;7.854;2022-09-09T04:55:43;16.60;99.90
3528;DHT22;1778;47.966;7.854;2022-09-09T04:56:45;16.60;99.90
3528;DHT22;1778;47.966;7.854;2022-09-09T04:57:47;16.70;99.90
3528;DHT22;1778;47.966;7.854;2022-09-09T04:58:49;16.70;99.90
3528;DHT22;1778;47.966;7.854;2022-09-09T04:59:51;16.70;99.90
3528;DHT22;1778;47.966;7.854;2022-09-09T05:00:53;16.70;99.90
3528;DHT22;1778;47.966;7.854;2022-09-09T05:01:55;16.80;99.90
3528;DHT22;1778;47.966;7.854;2022-09-09T05:02:57;16.80;99.90
3528;DHT22;1778;47.966;7.854;2022-09-09T05:03:58;16.80;99.90
3528;DHT22;1778;47.966;7.854;2022-09-09T05:05:01;16.70;99.90
3528;DHT22;1778;47.966;7.854;2022-09-09T05:06:07;16.80;99.90
3528;DHT22;1778;47.966;7.854;2022-09-09T05:07:10;16.80;99.90
3528;DHT22;1778;47.966;7.854;2022-09-09T05:08:13;16.90;99.90
3528;DHT22;1778;47.966;7.854;2022-09-09T05:09:15;16.80;99.90
3528;DHT22;1778;47.966;7.854;2022-09-09T05:10:18;16.80;99.90
3528;DHT22;1778;47.966;7.854;2022-09-09T05:11:21;16.80;99.90
3528;DHT22;1778;47.966;7.854;2022-09-09T05:12:26;16.90;99.90
3528;DHT22;1778;47.966;7.854;2022-09-09T05:13:29;16.90;99.90
3528;DHT22;1778;47.966;7.854;2022-09-09T05:14:32;16.90;99.90
3528;DHT22;1778;47.966;7.854;2022-09-09T05:15:35;16.90;99.90
3528;DHT22;1778;47.966;7.854;2022-09-09T05:16:37;16.90;99.90
3528;DHT22;1778;47.966;7.854;2022-09-09T05:17:39;17.00;99.90
3528;DHT22;1778;47.966;7.854;2022-09-09T05:18:42;17.00;99.90
3528;DHT22;1778;47.966;7.854;2022-09-09T05:19:47;17.00;99.90
3528;DHT22;1778;47.966;7.854;2022-09-09T05:20:49;17.00;99.90
3528;DHT22;1778;47.966;7.854;2022-09-09T05:21:52;17.00;99.90
3528;DHT22;1778;47.966;7.854;2022-09-09T05:23:04;17.00;99.90
3528;DHT22;1778;47.966;7.854;2022-09-09T05:24:07;17.00;99.90
3528;DHT22;1778;47.966;7.854;2022-09-09T05:25:09;17.00;99.90
3528;DHT22;1778;47.966;7.854;2022-09-09T05:26:14;17.00;99.90
3528;DHT22;1778;47.966;7.854;2022-09-09T05:27:20;17.00;99.90
3528;DHT22;1778;47.966;7.854;2022-09-09T05:28:24;17.00;99.90
3528;DHT22;1778;47.966;7.854;2022-09-09T05:29:28;17.00;99.90
3528;DHT22;1778;47.966;7.854;2022-09-09T05:30:30;17.00;99.90
3528;DHT22;1778;47.966;7.854;2022-09-09T05:31:35;17.00;99.90
3528;DHT22;1778;47.966;7.854;2022-09-09T05:32:42;17.00;99.90
3528;DHT22;1778;47.966;7.854;2022-09-09T05:33:46;17.10;99.90
3528;DHT22;1778;47.966;7.854;2022-09-09T05:34:49;17.00;99.90
3528;DHT22;1778;47.966;7.854;2022-09-09T05:35:59;17.10;99.90
3528;DHT22;1778;47.966;7.854;2022-09-09T05:37:01;17.10;99.90
3528;DHT22;1778;47.966;7.854;2022-09-09T05:38:03;17.10;99.90
3528;DHT22;1778;47.966;7.854;2022-09-09T05:39:04;17.10;99.90
3528;DHT22;1778;47.966;7.854;2022-09-09T05:40:07;17.10;99.90
3528;DHT22;1778;47.966;7.854;2022-09-09T05:41:10;17.10;99.90
3528;DHT22;1778;47.966;7.854;2022-09-09T05:42:12;17.20;99.90
3528;DHT22;1778;47.966;7.854;2022-09-09T05:43:14;17.20;99.90
3528;DHT22;1778;47.966;7.854;2022-09-09T05:44:16;17.30;99.90
3528;DHT22;1778;47.966;7.854;2022-09-09T05:45:18;17.30;99.90
3528;DHT22;1778;47.966;7.854;2022-09-09T05:46:21;17.40;99.90
3528;DHT22;1778;47.966;7.854;2022-09-09T05:47:25;17.30;99.90
3528;DHT22;1778;47.966;7.854;2022-09-09T05:48:30;17.30;99.90
3528;DHT22;1778;47.966;7.854;2022-09-09T05:49:32;17.20;99.90
3528;DHT22;1778;47.966;7.854;2022-09-09T05:50:34;17.30;99.90
3528;DHT22;1778;47.966;7.854;2022-09-09T05:51:36;17.30;99.90
3528;DHT22;1778;47.966;7.854;2022-09-09T05:52:44;17.30;99.90
3528;DHT22;1778;47.966;7.854;2022-09-09T05:53:46;17.40;99.90
3528;DHT22;1778;47.966;7.854;2022-09-09T05:54:48;17.30;99.90
3528;DHT22;1778;47.966;7.854;2022-09-09T05:55:50;17.30;99.90
3528;DHT22;1778;47.966;7.854;2022-09-09T05:56:52;17.30;99.90
3528;DHT22;1778;47.966;7.854;2022-09-09T05:57:55;17.30;99.90
3528;DHT22;1778;47.966;7.854;2022-09-09T05:58:58;17.30;99.90
3528;DHT22;1778;47.966;7.854;2022-09-09T06:00:02;17.30;99.90
3528;DHT22;1778;47.966;7.854;2022-09-09T06:01:17;17.40;99.90
3528;DHT22;1778;47.966;7.854;2022-09-09T06:02:21;17.40;99.90
3528;DHT22;1778;47.966;7.854;2022-09-09T06:03:23;17.40;99.90
3528;DHT22;1778;47.966;7.854;2022-09-09T06:04:25;17.40;99.90
3528;DHT22;1778;47.966;7.854;2022-09-09T06:05:27;17.50;99.90
3528;DHT22;1778;47.966;7.854;2022-09-09T06:06:36;17.50;99.90
3528;DHT22;1778;47.966;7.854;2022-09-09T06:07:43;17.50;99.90
3528;DHT22;1778;47.966;7.854;2022-09-09T06:08:46;17.50;99.90
3528;DHT22;1778;47.966;7.854;2022-09-09T06:09:50;17.60;99.90
3528;DHT22;1778;47.966;7.854;2022-09-09T06:10:52;17.60;99.90
3528;DHT22;1778;47.966;7.854;2022-09-09T06:11:55;17.60;99.90
3528;DHT22;1778;47.966;7.854;2022-09-09T06:12:57;17.60;99.90
3528;DHT22;1778;47.966;7.854;2022-09-09T06:13:59;17.70;99.90
3528;DHT22;1778;47.966;7.854;2022-09-09T06:15:03;17.70;99.90
3528;DHT22;1778;47.966;7.854;2022-09-09T06:16:10;17.70;99.90
3528;DHT22;1778;47.966;7.854;2022-09-09T06:17:13;17.70;99.90
3528;DHT22;1778;47.966;7.854;2022-09-09T06:18:16;17.80;99.90
3528;DHT22;1778;47.966;7.854;2022-09-09T06:19:19;17.80;99.90
3528;DHT22;1778;47.966;7.854;2022-09-09T06:20:22;17.70;99.90
3528;DHT22;1778;47.966;7.854;2022-09-09T06:21:29;17.80;99.90
3528;DHT22;1778;47.966;7.854;2022-09-09T06:22:35;17.80;99.90
3528;DHT22;1778;47.966;7.854;2022-09-09T06:23:39;17.80;99.90
3528;DHT22;1778;47.966;7.854;2022-09-09T06:24:41;17.80;99.90
3528;DHT22;1778;47.966;7.854;2022-09-09T06:25:43;17.90;99.90
3528;DHT22;1778;47.966;7.854;2022-09-09T06:26:45;17.80;99.90
3528;DHT22;1778;47.966;7.854;2022-09-09T06:27:52;17.90;99.90
3528;DHT22;1778;47.966;7.854;2022-09-09T06:28:55;17.90;99.90
3528;DHT22;1778;47.966;7.854;2022-09-09T06:29:56;17.90;99.90
3528;DHT22;1778;47.966;7.854;2022-09-09T06:31:02;18.00;99.90
3528;DHT22;1778;47.966;7.854;2022-09-09T06:32:05;17.90;99.90
3528;DHT22;1778;47.966;7.854;2022-09-09T06:33:07;17.90;99.90
3528;DHT22;1778;47.966;7.854;2022-09-09T06:34:09;17.90;99.90
3528;DHT22;1778;47.966;7.854;2022-09-09T06:35:14;17.90;99.90
3528;DHT22;1778;47.966;7.854;2022-09-09T06:36:21;17.90;99.90
3528;DHT22;1778;47.966;7.854;2022-09-09T06:37:23;18.00;99.90
3528;DHT22;1778;47.966;7.854;2022-09-09T06:38:25;18.00;99.90
3528;DHT22;1778;47.966;7.854;2022-09-09T06:39:28;18.10;99.90
3528;DHT22;1778;47.966;7.854;2022-09-09T06:40:29;18.10;99.90
3528;DHT22;1778;47.966;7.854;2022-09-09T06:41:32;18.20;99.90
3528;DHT22;1778;47.966;7.854;2022-09-09T06:42:37;18.20;99.90
3528;DHT22;1778;47.966;7.854;2022-09-09T06:43:54;18.30;99.90
3528;DHT22;1778;47.966;7.854;2022-09-09T06:45:04;18.30;99.90
3528;DHT22;1778;47.966;7.854;2022-09-09T06:46:20;18.30;99.90
3528;DHT22;1778;47.966;7.854;2022-09-09T06:47:24;18.30;99.90
3528;DHT22;1778;47.966;7.854;2022-09-09T06:48:27;18.30;99.90
3528;DHT22;1778;47.966;7.854;2022-09-09T06:49:29;18.30;99.90
3528;DHT22;1778;47.966;7.854;2022-09-09T06:50:31;18.30;99.90
3528;DHT22;1778;47.966;7.854;2022-09-09T06:51:37;18.30;99.90
3528;DHT22;1778;47.966;7.854;2022-09-09T06:52:46;18.20;99.90
3528;DHT22;1778;47.966;7.854;2022-09-09T06:53:53;18.20;99.90
3528;DHT22;1778;47.966;7.854;2022-09-09T06:54:57;18.20;99.90
3528;DHT22;1778;47.966;7.854;2022-09-09T06:56:46;18.20;99.90
3528;DHT22;1778;47.966;7.854;2022-09-09T06:57:26;18.20;99.90
3528;DHT22;1778;47.966;7.854;2022-09-09T06:58:46;18.10;99.90
3528;DHT22;1778;47.966;7.854;2022-09-09T06:59:56;18.10;99.90
3528;DHT22;1778;47.966;7.854;2022-09-09T07:01:05;18.20;99.90
3528;DHT22;1778;47.966;7.854;2022-09-09T07:02:08;18.20;99.90
3528;DHT22;1778;47.966;7.854;2022-09-09T07:03:10;18.20;99.90
3528;DHT22;1778;47.966;7.854;2022-09-09T07:04:13;18.20;99.90
3528;DHT22;1778;47.966;7.854;2022-09-09T07:05:17;18.20;99.90
3528;DHT22;1778;47.966;7.854;2022-09-09T07:06:23;18.30;99.90
3528;DHT22;1778;47.966;7.854;2022-09-09T07:07:25;18.30;99.90
3528;DHT22;1778;47.966;7.854;2022-09-09T07:08:28;18.30;99.90
3528;DHT22;1778;47.966;7.854;2022-09-09T07:09:30;18.30;99.90
3528;DHT22;1778;47.966;7.854;2022-09-09T07:10:32;18.40;99.90
3528;DHT22;1778;47.966;7.854;2022-09-09T07:11:41;18.50;99.90
3528;DHT22;1778;47.966;7.854;2022-09-09T07:12:44;18.50;99.90
3528;DHT22;1778;47.966;7.854;2022-09-09T07:13:47;18.60;99.90
3528;DHT22;1778;47.966;7.854;2022-09-09T07:14:49;18.70;99.90
3528;DHT22;1778;47.966;7.854;2022-09-09T07:15:51;18.80;99.90
3528;DHT22;1778;47.966;7.854;2022-09-09T07:16:53;18.80;99.90
3528;DHT22;1778;47.966;7.854;2022-09-09T07:18:03;18.80;99.90
3528;DHT22;1778;47.966;7.854;2022-09-09T07:19:05;18.80;99.90
3528;DHT22;1778;47.966;7.854;2022-09-09T07:20:07;18.90;99.90
3528;DHT22;1778;47.966;7.854;2022-09-09T07:21:11;18.90;99.90
3528;DHT22;1778;47.966;7.854;2022-09-09T07:22:13;18.90;99.90
3528;DHT22;1778;47.966;7.854;2022-09-09T07:23:16;18.90;99.90
3528;DHT22;1778;47.966;7.854;2022-09-09T07:24:19;18.90;99.90
3528;DHT22;1778;47.966;7.854;2022-09-09T07:25:21;19.00;99.90
3528;DHT22;1778;47.966;7.854;2022-09-09T07:26:26;19.00;99.90
3528;DHT22;1778;47.966;7.854;2022-09-09T07:27:28;19.00;99.90
3528;DHT22;1778;47.966;7.854;2022-09-09T07:28:30;19.00;99.90
3528;DHT22;1778;47.966;7.854;2022-09-09T07:29:32;19.00;99.90
3528;DHT22;1778;47.966;7.854;2022-09-09T07:30:34;19.00;99.90
3528;DHT22;1778;47.966;7.854;2022-09-09T07:31:38;19.00;99.90
3528;DHT22;1778;47.966;7.854;2022-09-09T07:32:44;19.00;99.90
3528;DHT22;1778;47.966;7.854;2022-09-09T07:33:47;19.10;99.90
3528;DHT22;1778;47.966;7.854;2022-09-09T07:34:49;19.10;99.90
3528;DHT22;1778;47.966;7.854;2022-09-09T07:35:52;19.10;99.90
3528;DHT22;1778;47.966;7.854;2022-09-09T07:36:54;19.20;99.90
3528;DHT22;1778;47.966;7.854;2022-09-09T07:37:55;19.30;99.90
3528;DHT22;1778;47.966;7.854;2022-09-09T07:39:05;19.30;99.90
3528;DHT22;1778;47.966;7.854;2022-09-09T07:40:08;19.30;99.90
3528;DHT22;1778;47.966;7.854;2022-09-09T07:41:13;19.20;99.90
3528;DHT22;1778;47.966;7.854;2022-09-09T07:42:15;19.30;99.90
3528;DHT22;1778;47.966;7.854;2022-09-09T07:43:17;19.30;99.90
3528;DHT22;1778;47.966;7.854;2022-09-09T07:44:23;19.30;99.90